Latest Weather Observations for Kiama

IDN60801

Issued at 6:35 pm EST Tuesday 2 September 2014 (issued every 30 minutes, with the page automatically refreshed every 10 minutes)

About weather observations | Map of weather stations | Latest weather observations for NSW | Other Formats
Station Details ID: 068242 Name: KIAMA (BOMBO HEADLAND) Lat: -34.65 Lon: 150.86 Height: 15.5 m
Data from the previous 72 hours. | See also: Recent months at Kiama
Date/Time
EST
Temp
°C
App
Temp
°C
Dew
Point
Rel
Hum
%
Delta-T
°C
Wind Press
QNH
hPa
Press
MSL
hPa
Rain
since 9 am
mm
Dir
 
Spd
km/h
Gust
km/h
Spd
kts
Gust
kts
02/06:30pm 10.9 3.6 7.0 77 1.9 SW 35 56 19 30 - - 1.0
02/06:04pm 11.4 4.1 7.3 76 2.0 SSW 35 54 19 29 - - 1.0
02/06:00pm 11.5 4.6 7.4 76 2.0 SSW 33 44 18 24 - - 0.8
02/05:37pm 12.2 6.3 7.7 74 2.2 SW 28 46 15 25 - - 0.6
02/05:30pm 12.4 8.3 7.9 74 2.2 SW 19 33 10 18 - - 0.4
02/05:00pm 11.8 6.9 7.1 73 2.3 SW 22 32 12 17 - - 0.2
02/04:30pm 12.6 8.3 7.7 72 2.4 SW 20 30 11 16 - - 0.0
02/04:00pm 13.2 8.2 6.3 63 3.3 WSW 22 32 12 17 - - 0.0
02/03:30pm 15.2 10.8 7.3 59 3.9 S 20 28 11 15 - - 0.0
02/03:00pm 15.0 12.6 6.8 58 4.0 SW 9 13 5 7 - - 0.0
02/02:30pm 14.5 12.0 6.6 59 3.8 WSW 9 15 5 8 - - 0.0
02/02:00pm 14.4 12.3 6.5 59 3.8 W 7 13 4 7 - - 0.0
02/01:30pm 14.4 10.2 5.5 55 4.2 SW 17 22 9 12 - - 0.0
02/01:00pm 15.0 9.3 6.8 58 4.0 SSW 26 32 14 17 - - 0.0
02/12:30pm 14.1 9.3 7.2 63 3.4 WSW 22 32 12 17 - - 0.0
02/12:00pm 14.0 8.3 8.2 68 2.9 SSW 28 37 15 20 - - 0.0
02/11:30am 13.4 6.4 8.5 72 2.4 SSW 35 46 19 25 - - 0.0
02/11:00am 13.8 7.6 9.3 74 2.3 S 32 43 17 23 - - 0.0
02/10:30am 15.2 8.9 7.3 59 3.9 SSW 30 39 16 21 - - 0.0
02/10:00am 15.0 10.4 6.6 57 4.1 SW 20 33 11 18 - - 0.0
02/09:30am 15.4 11.8 6.7 56 4.2 SSW 15 24 8 13 - - 0.0
02/09:00am 15.3 12.3 6.1 54 4.4 W 11 19 6 10 - - 0.2
02/08:30am 14.8 11.4 6.1 56 4.2 WSW 13 24 7 13 - - 0.2
02/08:00am 14.8 12.7 6.6 58 4.0 W 7 15 4 8 - - 0.2
02/07:30am 14.9 12.4 6.5 57 4.1 N 9 15 5 8 - - 0.2
02/07:00am 14.9 11.9 6.2 56 4.2 WNW 11 17 6 9 - - 0.2
02/06:30am 15.0 12.4 6.3 56 4.2 NW 9 17 5 9 - - 0.2
02/06:00am 15.1 12.2 6.4 56 4.2 NNW 11 15 6 8 - - 0.2
02/05:30am 15.2 12.7 6.5 56 4.2 NNW 9 15 5 8 - - 0.2
02/05:00am 14.9 13.7 6.5 57 4.1 W 2 7 1 4 - - 0.2
02/04:30am 15.5 13.5 6.2 54 4.5 WNW 6 11 3 6 - - 0.2
02/04:00am 16.0 13.0 6.2 52 4.8 W 11 17 6 9 - - 0.2
02/03:30am 16.2 13.3 6.3 52 4.8 W 11 19 6 10 - - 0.2
02/03:00am 17.0 13.4 6.8 51 5.0 WSW 15 20 8 11 - - 0.2
02/02:30am 17.1 15.1 6.9 51 5.1 W 7 13 4 7 - - 0.2
02/02:00am 17.2 14.8 7.0 51 5.1 NW 9 13 5 7 - - 0.2
02/01:30am 17.5 14.3 7.0 50 5.2 NW 13 19 7 10 - - 0.2
02/01:00am 17.5 14.8 7.3 51 5.1 NNW 11 15 6 8 - - 0.2
02/12:30am 17.4 14.7 7.5 52 5.0 NW 11 15 6 8 - - 0.2
02/12:00am 15.9 14.4 8.6 62 3.7 NW 6 9 3 5 - - 0.2
 
Date/Time
EST
Temp
°C
App
Temp
°C
Dew
Point
Rel
Hum
%
Delta-T
°C
Wind Press
QNH
hPa
Press
MSL
hPa
Rain
since 9 am
mm
Dir
 
Spd
km/h
Gust
km/h
Spd
kts
Gust
kts
01/11:30pm 17.8 14.6 6.7 48 5.5 NW 13 17 7 9 - - 0.2
01/11:00pm 16.7 14.1 7.6 55 4.6 NNW 11 15 6 8 - - 0.2
01/10:30pm 17.8 15.3 8.4 54 4.8 NW 11 13 6 7 - - 0.2
01/10:00pm 17.4 15.5 10.5 64 3.7 NW 11 13 6 7 - - 0.2
01/09:30pm 16.3 15.1 11.7 74 2.5 NNW 9 11 5 6 - - 0.2
01/09:00pm 15.1 15.6 11.5 79 1.9 CALM 0 7 0 4 - - 0.2
01/08:30pm 15.5 16.2 12.1 80 1.9 CALM 0 0 0 0 - - 0.2
01/08:00pm 15.4 15.7 12.2 81 1.7 NW 2 7 1 4 - - 0.2
01/07:30pm 15.9 16.3 12.5 80 1.9 N 2 6 1 3 - - 0.2
01/07:00pm 16.2 17.0 12.7 80 1.9 CALM 0 0 0 0 - - 0.2
01/06:30pm 16.6 17.6 13.1 80 2.0 CALM 0 2 0 1 - - 0.2
01/06:00pm 17.2 18.2 13.1 77 2.3 CALM 0 4 0 2 - - 0.2
01/05:30pm 17.5 16.4 13.0 75 2.5 N 11 13 6 7 - - 0.2
01/05:00pm 17.9 17.8 13.2 74 2.6 N 6 9 3 5 - - 0.2
01/04:30pm 18.2 17.6 13.5 74 2.7 N 9 13 5 7 - - 0.2
01/04:00pm 18.6 17.3 13.7 73 2.8 N 13 22 7 12 - - 0.2
01/03:30pm 19.4 18.3 14.2 72 3.0 NNE 13 22 7 12 - - 0.2
01/03:00pm 19.0 16.5 13.6 71 3.1 NNE 19 24 10 13 - - 0.2
01/02:30pm 19.3 17.4 13.0 67 3.6 NNE 15 20 8 11 - - 0.2
01/02:00pm 20.2 18.2 12.7 62 4.2 NNE 15 22 8 12 - - 0.2
01/01:30pm 20.1 17.7 11.3 57 4.8 NNE 15 24 8 13 - - 0.2
01/01:00pm 20.4 17.5 11.1 55 5.1 NNE 17 24 9 13 - - 0.2
01/12:30pm 20.6 17.1 10.1 51 5.7 NNE 19 26 10 14 - - 0.2
01/12:00pm 20.9 18.7 10.7 52 5.6 NNE 13 20 7 11 - - 0.2
01/11:30am 20.1 17.1 10.8 55 5.1 NNE 17 22 9 12 - - 0.0
01/11:00am 18.9 15.1 11.0 60 4.3 NE 22 28 12 15 - - 0.0
01/10:30am 19.6 16.3 9.5 52 5.4 NNE 17 24 9 13 - - 0.0
01/10:00am 19.6 17.0 9.2 51 5.5 NNE 13 19 7 10 - - 0.0
01/09:30am 18.4 14.9 8.9 54 4.9 N 17 20 9 11 - - 0.0
01/09:00am 16.9 13.9 10.5 66 3.4 N 17 19 9 10 - - 0.0
01/08:30am 16.0 14.9 10.7 71 2.8 N 7 11 4 6 - - 0.0
01/08:00am 14.6 14.8 10.6 77 2.1 CALM 0 6 0 3 - - 0.0
01/07:30am 12.3 10.9 8.8 79 1.7 N 6 7 3 4 - - 0.0
01/07:00am 11.1 9.3 8.0 81 1.5 W 7 11 4 6 - - 0.0
01/06:30am 11.9 10.3 8.9 82 1.5 WSW 7 15 4 8 - - 0.0
01/06:00am 11.4 9.2 9.3 87 1.1 NNW 11 15 6 8 - - 0.0
01/05:30am 10.1 9.6 8.0 87 1.0 CALM 0 4 0 2 - - 0.0
01/05:00am 10.4 9.3 8.3 87 1.0 NW 4 7 2 4 - - 0.0
01/04:30am 11.1 10.9 9.2 88 0.9 CALM 0 0 0 0 - - 0.0
01/04:00am 10.5 9.8 8.6 88 0.9 NW 2 4 1 2 - - 0.0
01/03:30am 10.6 10.3 8.7 88 0.9 CALM 0 0 0 0 - - 0.0
01/03:00am 10.8 10.1 8.7 87 1.0 N 2 6 1 3 - - 0.0
01/02:30am 10.7 10.4 8.5 86 1.1 CALM 0 6 0 3 - - 0.0
01/02:00am 11.1 10.5 8.8 86 1.1 WNW 2 4 1 2 - - 0.0
01/01:30am 11.4 11.3 9.3 87 1.1 CALM 0 0 0 0 - - 0.0
01/01:00am 11.1 10.5 9.0 87 1.0 WNW 2 6 1 3 - - 0.0
01/12:30am 11.1 10.9 9.0 87 1.0 CALM 0 6 0 3 - - 0.0
01/12:00am 11.2 10.3 9.1 87 1.0 WSW 4 6 2 3 - - 0.0
 
Date/Time
EST
Temp
°C
App
Temp
°C
Dew
Point
Rel
Hum
%
Delta-T
°C
Wind Press
QNH
hPa
Press
MSL
hPa
Rain
since 9 am
mm
Dir
 
Spd
km/h
Gust
km/h
Spd
kts
Gust
kts
31/11:30pm 12.3 11.1 10.2 87 1.1 NW 7 9 4 5 - - 0.0
31/11:00pm 11.7 10.5 9.4 86 1.2 W 6 9 3 5 - - 0.0
31/10:30pm 12.2 10.5 9.9 86 1.2 W 9 11 5 6 - - 0.0
31/10:00pm 12.6 10.6 10.1 85 1.3 W 11 13 6 7 - - 0.0
31/09:30pm 13.3 11.9 10.8 85 1.3 WNW 9 13 5 7 - - 0.0
31/09:00pm 13.5 12.1 10.9 84 1.4 WNW 9 11 5 6 - - 0.0
31/08:30pm 13.2 11.3 10.4 83 1.5 WNW 11 11 6 6 - - 0.0
31/08:00pm 13.5 12.0 10.5 82 1.6 WNW 9 11 5 6 - - 0.0
31/07:30pm 13.6 12.0 10.2 80 1.8 WNW 9 11 5 6 - - 0.0
31/07:00pm 14.4 13.3 10.6 78 2.0 NW 7 9 4 5 - - 0.0
31/06:30pm 14.9 14.0 10.7 76 2.2 NNW 6 9 3 5 - - 0.0
31/06:00pm 15.5 14.7 11.1 75 2.3 N 6 9 3 5 - - 0.0
31/05:30pm 16.2 15.4 11.2 72 2.7 NNE 6 9 3 5 - - 0.0
31/05:00pm 17.3 16.7 11.8 70 3.0 NNE 6 7 3 4 - - 0.0
31/04:30pm 17.9 17.7 11.7 67 3.4 NE 4 7 2 4 - - 0.0
31/04:00pm 18.3 17.5 11.8 66 3.6 E 7 9 4 5 - - 0.0
31/03:30pm 18.2 17.3 11.3 64 3.8 E 7 9 4 5 - - 0.0
31/03:00pm 18.4 17.8 12.2 67 3.4 E 7 13 4 7 - - 0.0
31/02:30pm 18.6 18.0 12.4 67 3.5 ESE 7 13 4 7 - - 0.0
31/02:00pm 18.2 17.2 12.4 69 3.2 ESE 9 13 5 7 - - 0.0
31/01:30pm 18.0 16.6 12.2 69 3.2 ESE 11 13 6 7 - - 0.0
31/01:00pm 17.4 15.2 12.1 71 2.9 SE 15 19 8 10 - - 0.0
31/12:30pm 17.3 14.4 12.2 72 2.8 SSE 19 20 10 11 - - 0.0
31/12:00pm 16.9 13.9 12.0 73 2.7 SSE 19 20 10 11 - - 0.0
31/11:30am 16.4 13.1 11.6 73 2.6 SSE 20 24 11 13 - - 0.0
31/11:00am 16.5 13.1 11.4 72 2.8 SSE 20 24 11 13 - - 0.0
31/10:30am 16.9 14.8 11.0 68 3.2 S 13 20 7 11 - - 0.0
31/10:00am 16.8 14.3 11.1 69 3.1 SSW 15 20 8 11 - - 0.0
31/09:30am 16.4 13.9 11.1 71 2.8 SSW 15 19 8 10 - - 0.0
31/09:00am 16.2 13.7 11.2 72 2.7 SSW 15 22 8 12 - - 3.8
31/08:30am 15.9 15.2 11.3 74 2.5 WNW 6 11 3 6 - - 3.8
31/08:00am 14.6 14.1 10.8 78 2.0 WSW 4 11 2 6 - - 3.8
31/07:30am 13.5 13.3 10.3 81 1.7 WNW 2 6 1 3 - - 3.8
31/07:00am 12.0 11.0 8.8 81 1.6 SW 4 7 2 4 - - 3.8
31/06:30am 12.1 10.1 8.8 80 1.6 W 9 11 5 6 - - 3.8
31/06:00am 13.5 12.3 9.7 78 1.9 WSW 6 9 3 5 - - 3.8
31/05:30am 14.4 11.4 10.8 79 1.9 SSW 17 20 9 11 - - 3.8
31/05:00am 14.1 12.6 10.7 80 1.8 SW 9 13 5 7 - - 3.8
31/04:30am 14.2 12.8 10.8 80 1.8 SW 9 17 5 9 - - 3.8
31/04:00am 14.0 12.2 10.8 81 1.7 SW 11 15 6 8 - - 3.8
31/03:30am 13.8 12.7 10.6 81 1.7 SW 7 11 4 6 - - 3.8
31/03:00am 14.0 11.0 10.8 81 1.7 SSW 17 22 9 12 - - 3.8
31/02:30am 14.3 10.9 11.1 81 1.7 SSW 20 28 11 15 - - 3.8
31/02:00am 14.2 11.0 11.2 82 1.6 SW 19 24 10 13 - - 3.8
31/01:30am 14.0 12.6 11.0 82 1.6 SW 9 13 5 7 - - 3.8
31/01:00am 14.3 11.4 11.1 81 1.7 SW 17 24 9 13 - - 3.8
31/12:30am 14.5 11.1 11.3 81 1.7 SSW 20 33 11 18 - - 3.8
31/12:00am 14.4 10.7 11.4 82 1.6 SSW 22 33 12 18 - - 3.8
 
Date/Time
EST
Temp
°C
App
Temp
°C
Dew
Point
Rel
Hum
%
Delta-T
°C
Wind Press
QNH
hPa
Press
MSL
hPa
Rain
since 9 am
mm
Dir
 
Spd
km/h
Gust
km/h
Spd
kts
Gust
kts
30/11:30pm 14.5 10.5 11.7 83 1.5 SSW 24 33 13 18 - - 3.8
30/11:00pm 14.3 10.2 11.6 84 1.4 SSW 24 32 13 17 - - 3.8
30/10:30pm 14.1 9.6 11.4 84 1.4 SSW 26 33 14 18 - - 3.8
30/10:00pm 14.3 9.9 11.8 85 1.3 SSW 26 33 14 18 - - 3.8
30/09:30pm 13.8 9.7 11.5 86 1.2 SSW 24 30 13 16 - - 3.8
30/09:00pm 13.9 9.3 11.2 84 1.4 SSW 26 33 14 18 - - 3.8
30/08:30pm 14.4 9.2 11.6 83 1.5 SSW 30 39 16 21 - - 3.8
30/08:00pm 14.0 8.7 11.2 83 1.5 SSW 30 41 16 22 - - 3.8
30/07:30pm 14.0 9.0 11.0 82 1.6 SSW 28 41 15 22 - - 3.8
30/07:00pm 13.8 8.5 11.1 84 1.4 SSW 30 41 16 22 - - 3.8

Other Formats:

Comma delimited format used in spreadsheet applications
http://www.bom.gov.au/fwo/IDN60801/IDN60801.95749.axf

JavaScript Object Notation format (JSON) in row-major order
http://www.bom.gov.au/fwo/IDN60801/IDN60801.95749.json